Time;durP1;ratioP1;P1;durP2;ratioP2;P2;SDS_P1;SDS_P2;PMS_P1;PMS_P2;Temp;Humidity;BMP_temperature;BMP_pressure;BME280_temperature;BME280_humidity;BME280_pressure;Samples;Min_cycle;Max_cycle;Signal;HPM_P1;HPM_P2
2021/09/08 00:00:47;;;;;;;;;;;16.10;46.60;;;;;;4346191;33;19962;-39
2021/09/08 00:03:13;;;;;;;;;;;16.10;46.60;;;;;;4345999;33;19976;-39
2021/09/08 00:05:39;;;;;;;;;;;16.20;46.70;;;;;;4345965;33;19977;-38
2021/09/08 00:08:06;;;;;;;;;;;16.30;46.60;;;;;;4345869;33;19955;-38
2021/09/08 00:10:32;;;;;;;;;;;16.40;46.50;;;;;;4346078;33;19989;-39
2021/09/08 00:12:58;;;;;;;;;;;16.40;46.50;;;;;;4345723;32;19966;-38
2021/09/08 00:15:24;;;;;;;;;;;16.50;46.40;;;;;;4345597;33;20430;-38
2021/09/08 00:17:50;;;;;;;;;;;16.50;46.10;;;;;;4332083;33;19966;-38
2021/09/08 00:20:17;;;;;;;;;;;16.60;46.20;;;;;;4332190;33;19963;-37
2021/09/08 00:22:44;;;;;;;;;;;16.60;46.20;;;;;;4345970;33;19970;-38
2021/09/08 00:25:10;;;;;;;;;;;16.70;46.20;;;;;;4345961;33;20081;-39
2021/09/08 00:27:36;;;;;;;;;;;16.70;46.80;;;;;;4345808;33;19970;-37
2021/09/08 00:30:04;;;;;;;;;;;16.70;47.30;;;;;;4345791;33;20068;-39
2021/09/08 00:32:30;;;;;;;;;;;16.70;47.00;;;;;;4331881;33;19974;-39
2021/09/08 00:34:56;;;;;;;;;;;16.70;46.90;;;;;;4331773;33;19990;-40
2021/09/08 00:37:22;;;;;;;;;;;16.70;47.30;;;;;;4331767;33;19974;-45
2021/09/08 00:39:48;;;;;;;;;;;16.80;47.10;;;;;;4345676;33;19963;-45
2021/09/08 00:42:16;;;;;;;;;;;16.90;46.80;;;;;;4345365;33;20568;-38
2021/09/08 00:44:43;;;;;;;;;;;16.90;47.20;;;;;;4343968;33;19982;-39
2021/09/08 00:47:13;;;;;;;;;;;17.00;46.10;;;;;;4345728;32;20052;-38
2021/09/08 00:49:39;;;;;;;;;;;17.00;45.40;;;;;;4345677;32;19975;-38
2021/09/08 00:52:06;;;;;;;;;;;17.10;45.50;;;;;;4344169;33;19986;-42
2021/09/08 00:54:33;;;;;;;;;;;17.10;45.50;;;;;;4344282;33;19981;-40
2021/09/08 00:57:00;;;;;;;;;;;17.10;45.50;;;;;;4344924;32;19971;-40
2021/09/08 00:59:26;;;;;;;;;;;17.10;45.30;;;;;;4327699;33;19973;-39
2021/09/08 01:01:52;;;;;;;;;;;17.10;45.30;;;;;;4303531;33;19975;-39
2021/09/08 01:04:18;;;;;;;;;;;17.10;45.00;;;;;;4327765;33;19971;-38
2021/09/08 01:06:44;;;;;;;;;;;17.10;44.80;;;;;;4327931;33;19974;-40
2021/09/08 01:09:11;;;;;;;;;;;17.10;44.50;;;;;;4327778;33;20000;-38
2021/09/08 01:11:38;;;;;;;;;;;17.10;44.90;;;;;;4315723;33;19982;-39
2021/09/08 01:14:04;;;;;;;;;;;17.00;44.10;;;;;;4327747;33;20385;-40
2021/09/08 01:16:30;;;;;;;;;;;17.00;44.20;;;;;;4327975;33;19970;-39
2021/09/08 01:18:56;;;;;;;;;;;17.00;44.00;;;;;;4328382;33;19982;-40
2021/09/08 01:21:22;;;;;;;;;;;17.00;44.20;;;;;;4327605;33;19971;-39
2021/09/08 01:23:48;;;;;;;;;;;17.00;44.40;;;;;;4327340;33;19974;-39
2021/09/08 01:26:15;;;;;;;;;;;17.00;44.50;;;;;;4327193;33;20402;-37
2021/09/08 01:28:41;;;;;;;;;;;17.10;44.50;;;;;;4327377;33;19991;-38
2021/09/08 01:31:07;;;;;;;;;;;17.20;44.50;;;;;;4341253;33;19963;-37
2021/09/08 01:33:34;;;;;;;;;;;17.20;44.40;;;;;;4343393;33;20060;-38
2021/09/08 01:36:01;;;;;;;;;;;17.30;44.40;;;;;;4344337;32;20457;-38
2021/09/08 01:38:27;;;;;;;;;;;17.30;44.40;;;;;;4344692;32;20386;-39
2021/09/08 01:40:53;;;;;;;;;;;17.40;44.40;;;;;;4344740;33;19993;-39
2021/09/08 01:43:24;;;;;;;;;;;17.50;44.40;;;;;;4333685;33;20483;-39
2021/09/08 01:45:50;;;;;;;;;;;17.60;44.30;;;;;;4344807;33;19967;-38
2021/09/08 01:48:16;;;;;;;;;;;17.60;44.20;;;;;;4344141;33;19994;-38
2021/09/08 01:50:42;;;;;;;;;;;17.60;44.40;;;;;;4344433;33;20414;-38
2021/09/08 01:53:09;;;;;;;;;;;17.60;44.60;;;;;;4331240;33;19963;-38
2021/09/08 01:55:35;;;;;;;;;;;17.50;44.60;;;;;;4318563;33;20049;-38
2021/09/08 01:58:01;;;;;;;;;;;17.40;44.50;;;;;;4344193;33;19981;-38
2021/09/08 02:00:29;;;;;;;;;;;17.30;44.60;;;;;;4343914;33;20355;-38
2021/09/08 02:02:55;;;;;;;;;;;17.20;44.50;;;;;;4344264;33;19978;-39
2021/09/08 02:05:21;;;;;;;;;;;17.20;44.90;;;;;;4344693;33;19970;-39
2021/09/08 02:07:47;;;;;;;;;;;17.20;43.90;;;;;;4344085;33;20059;-38
2021/09/08 02:10:14;;;;;;;;;;;17.10;44.00;;;;;;4344173;33;20470;-38
2021/09/08 02:12:42;;;;;;;;;;;17.00;44.30;;;;;;4329922;33;20034;-37
2021/09/08 02:15:08;;;;;;;;;;;17.00;44.30;;;;;;4330945;33;19981;-38
2021/09/08 02:17:35;;;;;;;;;;;17.00;44.20;;;;;;4344336;33;19986;-39
2021/09/08 02:20:01;;;;;;;;;;;17.00;44.20;;;;;;4344277;33;20002;-37
2021/09/08 02:22:27;;;;;;;;;;;17.00;44.40;;;;;;4344046;33;19978;-39
2021/09/08 02:24:53;;;;;;;;;;;16.90;44.30;;;;;;4343728;33;20451;-39
2021/09/08 02:27:19;;;;;;;;;;;16.90;44.30;;;;;;4343906;33;19986;-38
2021/09/08 02:29:45;;;;;;;;;;;16.90;44.20;;;;;;4343962;33;19975;-38
2021/09/08 02:32:12;;;;;;;;;;;16.90;44.20;;;;;;4344452;33;19978;-39
2021/09/08 02:34:38;;;;;;;;;;;16.90;44.20;;;;;;4330438;33;19966;-39
2021/09/08 02:37:04;;;;;;;;;;;16.90;44.20;;;;;;4343777;33;19978;-39
2021/09/08 02:39:30;;;;;;;;;;;16.90;44.30;;;;;;4343475;33;19991;-38
2021/09/08 02:41:57;;;;;;;;;;;16.90;44.20;;;;;;4346827;32;20039;-39
2021/09/08 02:44:23;;;;;;;;;;;16.90;45.20;;;;;;4358572;32;19978;-39
2021/09/08 02:46:49;;;;;;;;;;;16.90;45.00;;;;;;4358654;32;19961;-40
2021/09/08 02:49:15;;;;;;;;;;;16.90;44.90;;;;;;4358759;32;19977;-37
2021/09/08 02:51:41;;;;;;;;;;;16.90;44.70;;;;;;4358524;32;20139;-40
2021/09/08 02:54:07;;;;;;;;;;;16.90;44.80;;;;;;4358157;32;20046;-41
2021/09/08 02:56:34;;;;;;;;;;;17.00;44.90;;;;;;4358534;32;19993;-40
2021/09/08 02:59:00;;;;;;;;;;;17.00;44.80;;;;;;4358322;32;19979;-38
2021/09/08 03:01:26;;;;;;;;;;;17.00;44.90;;;;;;4358251;32;19990;-40
2021/09/08 03:03:52;;;;;;;;;;;17.00;44.70;;;;;;4358350;32;20512;-39
2021/09/08 03:06:18;;;;;;;;;;;17.00;44.90;;;;;;4358174;32;19974;-39
2021/09/08 03:08:44;;;;;;;;;;;17.00;45.00;;;;;;4358120;32;19988;-37
2021/09/08 03:11:11;;;;;;;;;;;17.00;45.00;;;;;;4358676;32;19978;-38
2021/09/08 03:13:37;;;;;;;;;;;17.00;44.90;;;;;;4358066;32;20381;-38
2021/09/08 03:16:03;;;;;;;;;;;17.00;44.80;;;;;;4358278;32;19973;-39
2021/09/08 03:18:29;;;;;;;;;;;17.00;44.90;;;;;;4358166;32;19959;-38
2021/09/08 03:20:55;;;;;;;;;;;17.10;45.00;;;;;;4311149;33;19990;-38
2021/09/08 03:23:22;;;;;;;;;;;17.10;44.90;;;;;;4311431;33;19959;-39
2021/09/08 03:25:48;;;;;;;;;;;17.10;44.90;;;;;;4313671;33;19966;-38
2021/09/08 03:28:14;;;;;;;;;;;17.10;44.70;;;;;;4314633;33;19975;-38
2021/09/08 03:30:40;;;;;;;;;;;17.10;44.70;;;;;;4314863;33;19987;-38
2021/09/08 03:33:06;;;;;;;;;;;17.10;44.70;;;;;;4314459;33;19972;-38
2021/09/08 03:35:33;;;;;;;;;;;17.10;44.70;;;;;;4314506;33;20061;-38
2021/09/08 03:37:59;;;;;;;;;;;17.20;45.30;;;;;;4302322;33;20507;-39
2021/09/08 03:40:25;;;;;;;;;;;17.20;44.60;;;;;;4314138;33;19965;-38
2021/09/08 03:42:51;;;;;;;;;;;17.20;44.60;;;;;;4305680;33;20084;-37
2021/09/08 03:45:17;;;;;;;;;;;17.30;44.60;;;;;;4299522;33;20057;-38
2021/09/08 03:47:44;;;;;;;;;;;17.30;44.50;;;;;;4300107;33;19968;-39
2021/09/08 03:50:10;;;;;;;;;;;17.40;44.60;;;;;;4270520;33;20023;-38
2021/09/08 03:52:36;;;;;;;;;;;17.40;44.80;;;;;;4270510;33;20056;-38
2021/09/08 03:55:04;;;;;;;;;;;17.40;44.80;;;;;;4258871;33;19976;-39
2021/09/08 03:57:30;;;;;;;;;;;17.40;44.90;;;;;;4276567;33;20461;-40
2021/09/08 03:59:56;;;;;;;;;;;17.40;44.80;;;;;;4314295;33;20035;-39
2021/09/08 04:02:22;;;;;;;;;;;17.40;44.90;;;;;;4314192;33;19972;-39
2021/09/08 04:04:48;;;;;;;;;;;17.40;45.00;;;;;;4314261;33;19975;-41
2021/09/08 04:07:14;;;;;;;;;;;17.40;44.90;;;;;;4314391;33;20183;-39
2021/09/08 04:09:41;;;;;;;;;;;17.40;45.10;;;;;;4314173;33;19983;-41
2021/09/08 04:12:07;;;;;;;;;;;17.40;45.30;;;;;;4298575;33;19991;-39
2021/09/08 04:14:33;;;;;;;;;;;17.50;45.10;;;;;;4287230;33;19987;-38
2021/09/08 04:17:05;;;;;;;;;;;17.50;45.00;;;;;;4287947;33;19988;-38
2021/09/08 04:19:31;;;;;;;;;;;17.50;44.80;;;;;;4299411;33;20365;-39
2021/09/08 04:21:57;;;;;;;;;;;17.50;44.80;;;;;;4299534;33;19971;-39
2021/09/08 04:24:23;;;;;;;;;;;17.50;44.80;;;;;;4299339;33;19977;-38
2021/09/08 04:26:50;;;;;;;;;;;17.60;45.00;;;;;;4303865;33;20467;-40
2021/09/08 04:29:16;;;;;;;;;;;17.60;44.90;;;;;;4328451;33;20054;-39
2021/09/08 04:31:42;;;;;;;;;;;17.60;44.90;;;;;;4328386;33;20106;-38
2021/09/08 04:34:08;;;;;;;;;;;17.60;44.80;;;;;;4328083;33;20481;-41
2021/09/08 04:36:35;;;;;;;;;;;17.70;44.50;;;;;;4327169;33;19963;-39
2021/09/08 04:39:01;;;;;;;;;;;17.70;44.30;;;;;;4328166;33;19974;-38
2021/09/08 04:41:27;;;;;;;;;;;17.70;44.40;;;;;;4315923;33;19982;-38
2021/09/08 04:43:55;;;;;;;;;;;17.70;44.30;;;;;;4345099;33;19967;-39
2021/09/08 04:46:21;;;;;;;;;;;17.80;44.20;;;;;;4345403;32;19963;-39
2021/09/08 04:48:47;;;;;;;;;;;17.80;44.10;;;;;;4345403;32;20079;-37
2021/09/08 04:51:13;;;;;;;;;;;17.90;44.20;;;;;;4345142;32;20364;-38
2021/09/08 04:53:39;;;;;;;;;;;17.90;44.20;;;;;;4345390;32;19993;-40
2021/09/08 04:56:06;;;;;;;;;;;18.00;44.20;;;;;;4345081;32;20471;-40
2021/09/08 04:58:32;;;;;;;;;;;18.00;44.20;;;;;;4344929;33;19971;-40
2021/09/08 05:00:58;;;;;;;;;;;18.10;44.20;;;;;;4345011;32;19970;-40
2021/09/08 05:03:24;;;;;;;;;;;18.10;44.10;;;;;;4344947;32;19970;-38
2021/09/08 05:05:51;;;;;;;;;;;18.10;43.90;;;;;;4344782;32;19967;-38
2021/09/08 05:08:17;;;;;;;;;;;18.20;44.00;;;;;;4344744;32;19970;-38
2021/09/08 05:10:43;;;;;;;;;;;18.20;43.90;;;;;;4344814;32;20477;-38
2021/09/08 05:13:09;;;;;;;;;;;18.30;43.90;;;;;;4347917;32;19974;-38
2021/09/08 05:15:36;;;;;;;;;;;18.30;43.60;;;;;;4359632;32;20431;-38
2021/09/08 05:18:02;;;;;;;;;;;18.40;43.30;;;;;;4359327;32;20453;-39
2021/09/08 05:20:28;;;;;;;;;;;18.40;43.20;;;;;;4359685;32;19970;-39
2021/09/08 05:22:55;;;;;;;;;;;18.50;43.10;;;;;;4359507;32;19970;-38
2021/09/08 05:25:21;;;;;;;;;;;18.60;42.80;;;;;;4359754;32;20370;-39
2021/09/08 05:27:47;;;;;;;;;;;18.70;42.30;;;;;;4345610;32;19973;-38
2021/09/08 05:30:13;;;;;;;;;;;18.80;42.30;;;;;;4359599;32;20050;-39
2021/09/08 05:32:39;;;;;;;;;;;18.90;42.10;;;;;;4345988;32;19985;-37
2021/09/08 05:35:06;;;;;;;;;;;18.90;41.80;;;;;;4359081;32;20052;-39
2021/09/08 05:37:32;;;;;;;;;;;19.00;41.90;;;;;;4359471;32;20348;-38
2021/09/08 05:39:59;;;;;;;;;;;19.10;42.00;;;;;;4359450;32;19970;-38
2021/09/08 05:42:25;;;;;;;;;;;19.20;41.60;;;;;;4353095;32;20047;-38
2021/09/08 05:44:51;;;;;;;;;;;19.30;41.60;;;;;;4344373;32;19982;-38
2021/09/08 05:47:18;;;;;;;;;;;19.40;41.60;;;;;;4343345;32;19982;-38
2021/09/08 05:49:44;;;;;;;;;;;19.50;41.40;;;;;;4344700;32;19998;-38
2021/09/08 05:52:11;;;;;;;;;;;19.50;41.20;;;;;;4344540;33;20003;-38
2021/09/08 05:54:37;;;;;;;;;;;19.50;41.10;;;;;;4344170;32;20454;-38
2021/09/08 05:57:03;;;;;;;;;;;19.60;41.20;;;;;;4344483;33;20057;-38
2021/09/08 05:59:29;;;;;;;;;;;19.60;41.30;;;;;;4344225;33;19970;-37
2021/09/08 06:01:55;;;;;;;;;;;19.60;41.20;;;;;;4344375;32;20479;-40
2021/09/08 06:04:22;;;;;;;;;;;19.60;41.10;;;;;;4344736;32;19990;-38
2021/09/08 06:06:48;;;;;;;;;;;19.60;40.70;;;;;;4344138;32;19970;-37
2021/09/08 06:09:14;;;;;;;;;;;19.50;40.80;;;;;;4344060;33;19994;-38
2021/09/08 06:11:40;;;;;;;;;;;19.50;40.90;;;;;;4343829;32;20048;-38
2021/09/08 06:14:07;;;;;;;;;;;19.60;41.00;;;;;;4343776;32;20002;-38
2021/09/08 06:16:33;;;;;;;;;;;19.60;40.70;;;;;;4344221;33;19974;-37
2021/09/08 06:18:59;;;;;;;;;;;19.60;40.70;;;;;;4344313;33;20352;-37
2021/09/08 06:21:25;;;;;;;;;;;19.70;40.90;;;;;;4344099;33;19970;-38
2021/09/08 06:23:52;;;;;;;;;;;19.70;40.90;;;;;;4343855;33;19986;-37
2021/09/08 06:26:18;;;;;;;;;;;19.80;40.80;;;;;;4343802;33;19982;-38
2021/09/08 06:28:44;;;;;;;;;;;19.90;40.60;;;;;;4343189;33;20129;-39
2021/09/08 06:31:10;;;;;;;;;;;20.00;40.20;;;;;;4343685;33;20521;-38
2021/09/08 06:33:38;;;;;;;;;;;20.00;40.30;;;;;;4343945;33;19978;-38
2021/09/08 06:36:05;;;;;;;;;;;20.10;40.40;;;;;;4343773;33;19970;-39
2021/09/08 06:38:31;;;;;;;;;;;20.10;40.10;;;;;;4343843;33;20035;-38
2021/09/08 06:40:58;;;;;;;;;;;20.20;40.10;;;;;;4343193;33;20348;-37
2021/09/08 06:43:25;;;;;;;;;;;20.20;40.20;;;;;;4355948;32;20022;-39
2021/09/08 06:45:51;;;;;;;;;;;20.30;40.20;;;;;;4344782;32;19966;-38
2021/09/08 06:48:17;;;;;;;;;;;20.30;39.90;;;;;;4358320;32;20383;-38
2021/09/08 06:50:43;;;;;;;;;;;20.40;39.90;;;;;;4358473;32;20006;-38
2021/09/08 06:53:09;;;;;;;;;;;20.50;39.80;;;;;;4358458;32;19974;-38
2021/09/08 06:55:36;;;;;;;;;;;20.50;39.80;;;;;;4358392;32;20370;-39
2021/09/08 06:58:02;;;;;;;;;;;20.50;39.80;;;;;;4358460;32;19985;-38
2021/09/08 07:00:28;;;;;;;;;;;20.50;39.90;;;;;;4358070;32;19961;-38
2021/09/08 07:02:54;;;;;;;;;;;20.60;39.80;;;;;;4358931;32;20037;-37
2021/09/08 07:05:21;;;;;;;;;;;20.70;39.60;;;;;;4358435;32;19981;-38
2021/09/08 07:07:48;;;;;;;;;;;20.70;39.60;;;;;;4358339;32;20515;-38
2021/09/08 07:10:14;;;;;;;;;;;20.80;39.50;;;;;;4358317;32;19970;-38
2021/09/08 07:12:41;;;;;;;;;;;20.80;39.30;;;;;;4358020;32;20001;-38
2021/09/08 07:15:07;;;;;;;;;;;20.80;39.10;;;;;;4344514;32;20394;-38
2021/09/08 07:17:33;;;;;;;;;;;20.90;39.10;;;;;;4358413;32;19962;-39
2021/09/08 07:19:59;;;;;;;;;;;20.90;39.10;;;;;;4358512;32;19969;-38
2021/09/08 07:22:26;;;;;;;;;;;20.90;39.10;;;;;;4357976;32;19975;-38
2021/09/08 07:24:52;;;;;;;;;;;20.90;39.00;;;;;;4358020;32;20370;-37
2021/09/08 07:27:18;;;;;;;;;;;21.00;39.00;;;;;;4358289;32;19978;-38
2021/09/08 07:29:44;;;;;;;;;;;21.00;39.10;;;;;;4358127;32;20062;-38
2021/09/08 07:32:10;;;;;;;;;;;21.20;39.10;;;;;;4357719;32;19992;-37
2021/09/08 07:34:37;;;;;;;;;;;21.50;39.00;;;;;;4357984;32;20000;-39
2021/09/08 07:37:04;;;;;;;;;;;21.70;38.60;;;;;;4358141;32;19966;-38
2021/09/08 07:39:30;;;;;;;;;;;21.90;38.20;;;;;;4357964;32;20394;-39
2021/09/08 07:41:57;;;;;;;;;;;22.10;38.00;;;;;;4355402;32;20045;-38
2021/09/08 07:44:23;;;;;;;;;;;22.30;37.60;;;;;;4329306;33;20450;-38
2021/09/08 07:46:49;;;;;;;;;;;22.50;37.30;;;;;;4343250;33;21092;-39
2021/09/08 07:49:15;;;;;;;;;;;22.70;37.40;;;;;;4343481;33;20042;-38
2021/09/08 07:51:42;;;;;;;;;;;22.80;37.00;;;;;;4343232;33;19974;-38
2021/09/08 07:54:08;;;;;;;;;;;22.80;36.60;;;;;;4343122;33;19973;-38
2021/09/08 07:56:34;;;;;;;;;;;22.90;36.80;;;;;;4343393;33;19977;-38
2021/09/08 07:59:01;;;;;;;;;;;23.10;36.60;;;;;;4343270;33;20426;-38
2021/09/08 08:01:32;;;;;;;;;;;23.40;36.10;;;;;;4343663;33;20062;-39
2021/09/08 08:03:58;;;;;;;;;;;23.60;35.90;;;;;;4343325;33;19970;-38
2021/09/08 08:06:25;;;;;;;;;;;23.90;35.30;;;;;;4343321;33;19962;-37
2021/09/08 08:08:51;;;;;;;;;;;24.10;35.20;;;;;;4343413;33;20062;-38
2021/09/08 08:11:17;;;;;;;;;;;24.30;35.00;;;;;;4330123;33;19970;-37
2021/09/08 08:13:47;;;;;;;;;;;24.40;34.90;;;;;;4345843;33;19966;-37
2021/09/08 08:16:14;;;;;;;;;;;24.40;34.60;;;;;;4345751;33;19958;-38
2021/09/08 08:18:40;;;;;;;;;;;24.40;34.60;;;;;;4345626;33;20058;-37
2021/09/08 08:21:07;;;;;;;;;;;24.30;34.90;;;;;;4345654;33;20056;-38
2021/09/08 08:23:33;;;;;;;;;;;24.30;35.00;;;;;;4345581;33;20396;-38
2021/09/08 08:25:59;;;;;;;;;;;24.20;35.00;;;;;;4345731;33;19978;-38
2021/09/08 08:28:25;;;;;;;;;;;24.20;35.40;;;;;;4345731;33;20022;-38
2021/09/08 08:30:52;;;;;;;;;;;24.10;35.50;;;;;;4345771;33;20570;-38
2021/09/08 08:33:19;;;;;;;;;;;24.00;35.60;;;;;;4345353;33;19959;-37
2021/09/08 08:35:45;;;;;;;;;;;24.00;35.70;;;;;;4345556;33;20006;-38
2021/09/08 08:38:11;;;;;;;;;;;23.90;35.40;;;;;;4345371;33;19963;-38
2021/09/08 08:40:37;;;;;;;;;;;23.90;35.30;;;;;;4345304;33;20453;-38
2021/09/08 08:43:03;;;;;;;;;;;23.80;35.50;;;;;;4355525;32;19994;-38
2021/09/08 08:45:30;;;;;;;;;;;23.80;35.30;;;;;;4346276;32;20490;-38
2021/09/08 08:47:57;;;;;;;;;;;23.80;35.30;;;;;;4360132;32;19977;-38
2021/09/08 08:50:26;;;;;;;;;;;23.70;35.90;;;;;;4360401;32;19990;-37
2021/09/08 08:52:55;;;;;;;;;;;23.60;35.90;;;;;;4360372;32;20413;-38
2021/09/08 08:55:22;;;;;;;;;;;23.50;35.90;;;;;;4360322;32;19962;-37
2021/09/08 08:57:48;;;;;;;;;;;23.50;36.20;;;;;;4360031;32;19963;-37
2021/09/08 09:00:16;;;;;;;;;;;23.50;36.40;;;;;;4346442;32;20054;-38
2021/09/08 09:02:50;;;;;;;;;;;23.40;36.60;;;;;;4360052;32;19966;-38
2021/09/08 09:05:40;;;;;;;;;;;23.30;36.30;;;;;;4359770;32;19975;-38
2021/09/08 09:08:08;;;;;;;;;;;23.30;36.10;;;;;;4352207;32;20182;-38
2021/09/08 09:10:35;;;;;;;;;;;23.30;36.50;;;;;;4360151;32;19963;-38
2021/09/08 09:13:01;;;;;;;;;;;23.40;36.80;;;;;;4359879;32;19989;-38
2021/09/08 09:15:28;;;;;;;;;;;23.40;36.60;;;;;;4359954;32;19986;-38
2021/09/08 09:17:54;;;;;;;;;;;23.40;36.40;;;;;;4359595;32;20390;-38
2021/09/08 09:20:23;;;;;;;;;;;23.40;36.30;;;;;;4359553;32;19970;-37
2021/09/08 09:22:51;;;;;;;;;;;23.40;36.20;;;;;;4359456;32;20464;-38
2021/09/08 09:25:20;;;;;;;;;;;23.50;36.20;;;;;;4359305;32;20390;-38
2021/09/08 09:27:50;;;;;;;;;;;23.60;36.10;;;;;;4359631;32;19985;-38
2021/09/08 09:30:21;;;;;;;;;;;23.60;36.00;;;;;;4359408;32;19965;-38
2021/09/08 09:32:48;;;;;;;;;;;23.50;35.80;;;;;;4359630;32;20053;-37
2021/09/08 09:35:20;;;;;;;;;;;23.50;35.90;;;;;;4359636;32;19970;-39
2021/09/08 09:37:54;;;;;;;;;;;23.50;36.10;;;;;;4346310;32;19970;-38
2021/09/08 09:40:31;;;;;;;;;;;23.50;36.20;;;;;;4345452;32;20394;-38
2021/09/08 09:43:08;;;;;;;;;;;23.50;36.10;;;;;;4349767;32;20057;-39
2021/09/08 09:45:39;;;;;;;;;;;23.60;36.00;;;;;;4344602;33;19994;-38
2021/09/08 09:48:06;;;;;;;;;;;23.70;35.80;;;;;;4330665;33;20101;-38
2021/09/08 09:50:33;;;;;;;;;;;23.80;35.90;;;;;;4345117;33;19967;-38
2021/09/08 09:52:59;;;;;;;;;;;23.80;35.90;;;;;;4344357;33;19982;-39
2021/09/08 09:55:26;;;;;;;;;;;23.80;35.80;;;;;;4344403;33;20059;-39
2021/09/08 09:57:56;;;;;;;;;;;23.80;35.90;;;;;;4344585;33;20415;-39
2021/09/08 10:00:22;;;;;;;;;;;23.80;35.90;;;;;;4344247;33;19979;-39
2021/09/08 10:02:48;;;;;;;;;;;23.70;35.80;;;;;;4344325;33;19982;-38
2021/09/08 10:05:15;;;;;;;;;;;23.70;35.80;;;;;;4344366;33;20042;-38
2021/09/08 10:07:41;;;;;;;;;;;23.60;35.70;;;;;;4344270;33;19997;-38
2021/09/08 10:10:11;;;;;;;;;;;23.60;35.90;;;;;;4344259;33;19978;-38
2021/09/08 10:12:50;;;;;;;;;;;23.50;36.00;;;;;;4330513;33;19955;-39
2021/09/08 10:15:16;;;;;;;;;;;23.50;36.00;;;;;;4330999;33;19963;-39
2021/09/08 10:17:44;;;;;;;;;;;23.40;36.20;;;;;;4330356;33;20083;-38
2021/09/08 10:20:12;;;;;;;;;;;23.40;36.10;;;;;;4343926;33;19994;-38
2021/09/08 10:22:39;;;;;;;;;;;23.40;35.90;;;;;;4344248;33;20038;-38
2021/09/08 10:25:16;;;;;;;;;;;23.40;35.90;;;;;;4344057;33;20390;-39
2021/09/08 10:27:42;;;;;;;;;;;23.40;35.90;;;;;;4343282;32;20394;-38
2021/09/08 10:30:09;;;;;;;;;;;23.40;36.20;;;;;;4344017;33;20494;-39
2021/09/08 10:32:36;;;;;;;;;;;23.30;35.90;;;;;;4344124;33;20360;-39
2021/09/08 10:35:13;;;;;;;;;;;23.30;36.10;;;;;;4343536;33;19959;-38
2021/09/08 10:37:43;;;;;;;;;;;23.30;36.30;;;;;;4343673;33;19982;-39
2021/09/08 10:40:10;;;;;;;;;;;23.30;36.50;;;;;;4344217;33;19973;-38
2021/09/08 10:42:47;;;;;;;;;;;23.40;36.00;;;;;;4337023;32;19978;-39
2021/09/08 10:45:33;;;;;;;;;;;23.50;35.90;;;;;;4358694;32;19965;-39
2021/09/08 10:48:01;;;;;;;;;;;23.60;35.80;;;;;;4358148;32;19993;-39
2021/09/08 10:50:42;;;;;;;;;;;23.70;35.90;;;;;;4358239;32;19973;-39
2021/09/08 10:53:21;;;;;;;;;;;23.80;36.00;;;;;;4358461;32;19974;-39
2021/09/08 10:55:49;;;;;;;;;;;24.00;35.60;;;;;;4358202;32;20498;-39
2021/09/08 10:58:15;;;;;;;;;;;24.00;35.00;;;;;;4358470;32;19962;-39
2021/09/08 11:00:43;;;;;;;;;;;24.10;35.00;;;;;;4358378;32;19997;-39
2021/09/08 11:03:30;;;;;;;;;;;24.10;34.90;;;;;;4358261;32;20410;-39
2021/09/08 11:06:00;;;;;;;;;;;24.10;35.40;;;;;;4358346;32;20067;-37
2021/09/08 11:08:26;;;;;;;;;;;24.00;36.10;;;;;;4358176;32;19973;-39
2021/09/08 11:11:17;;;;;;;;;;;23.90;37.00;;;;;;4358486;32;19969;-38
2021/09/08 11:13:44;;;;;;;;;;;23.90;37.30;;;;;;4349596;32;19959;-38
2021/09/08 11:16:26;;;;;;;;;;;23.70;37.00;;;;;;4358482;32;19998;-38
2021/09/08 11:18:54;;;;;;;;;;;23.50;37.10;;;;;;4358224;32;19973;-38
2021/09/08 11:21:25;;;;;;;;;;;23.40;37.60;;;;;;4358188;32;20057;-39
2021/09/08 11:24:08;;;;;;;;;;;23.40;37.80;;;;;;4358343;32;19966;-38
2021/09/08 11:26:36;;;;;;;;;;;23.30;37.70;;;;;;4358514;32;20197;-38
2021/09/08 11:29:03;;;;;;;;;;;23.30;37.70;;;;;;4358136;32;20189;-39
2021/09/08 11:31:37;;;;;;;;;;;23.40;37.50;;;;;;4358483;32;19958;-38
2021/09/08 11:34:04;;;;;;;;;;;23.40;37.40;;;;;;4358282;32;19971;-38
2021/09/08 11:36:31;;;;;;;;;;;23.40;37.60;;;;;;4358089;32;19994;-38
2021/09/08 11:38:58;;;;;;;;;;;23.50;38.30;;;;;;4358256;32;19996;-38
2021/09/08 11:41:25;;;;;;;;;;;23.40;38.80;;;;;;4358299;32;19962;-38
2021/09/08 11:43:53;;;;;;;;;;;23.30;38.90;;;;;;4341604;33;19993;-39
2021/09/08 11:46:23;;;;;;;;;;;23.30;39.70;;;;;;4344491;32;19969;-43
2021/09/08 11:48:51;;;;;;;;;;;23.20;40.40;;;;;;4346121;33;20391;-44
2021/09/08 11:51:19;;;;;;;;;;;23.20;41.20;;;;;;4345687;33;19962;-38
2021/09/08 11:53:48;;;;;;;;;;;23.10;42.00;;;;;;4346202;33;19974;-39
2021/09/08 11:56:22;;;;;;;;;;;23.10;41.80;;;;;;4346298;33;20048;-38
2021/09/08 11:58:55;;;;;;;;;;;23.20;41.70;;;;;;4346290;33;20524;-38
2021/09/08 12:01:22;;;;;;;;;;;23.20;41.50;;;;;;4345850;33;20139;-39
2021/09/08 12:03:58;;;;;;;;;;;23.30;41.30;;;;;;4332204;33;19996;-39
2021/09/08 12:06:26;;;;;;;;;;;23.40;41.10;;;;;;4332185;33;19970;-37
2021/09/08 12:09:03;;;;;;;;;;;23.40;40.80;;;;;;4345947;33;19986;-38
2021/09/08 12:11:36;;;;;;;;;;;23.40;40.60;;;;;;4345740;33;19959;-39
2021/09/08 12:14:28;;;;;;;;;;;23.50;40.20;;;;;;4345766;33;19963;-40
2021/09/08 12:17:02;;;;;;;;;;;23.50;40.20;;;;;;4344392;33;20436;-38
2021/09/08 12:19:33;;;;;;;;;;;23.60;40.00;;;;;;4345497;33;20040;-40
2021/09/08 12:22:12;;;;;;;;;;;23.80;39.70;;;;;;4345879;33;20374;-38
2021/09/08 12:24:55;;;;;;;;;;;23.90;39.20;;;;;;4345629;33;20394;-40
2021/09/08 12:27:24;;;;;;;;;;;24.00;38.80;;;;;;4345949;33;19971;-38
2021/09/08 12:29:51;;;;;;;;;;;24.10;38.60;;;;;;4345398;32;19985;-39
2021/09/08 12:32:17;;;;;;;;;;;24.10;38.20;;;;;;4345443;33;20404;-39
2021/09/08 12:34:45;;;;;;;;;;;24.10;38.20;;;;;;4345645;33;19982;-40
2021/09/08 12:37:12;;;;;;;;;;;24.00;37.80;;;;;;4345710;33;19959;-39
2021/09/08 12:39:43;;;;;;;;;;;23.90;37.70;;;;;;4345575;33;20578;-39
2021/09/08 12:42:20;;;;;;;;;;;23.80;37.00;;;;;;4345334;33;20043;-39
2021/09/08 12:44:46;;;;;;;;;;;23.70;36.50;;;;;;4345718;32;19955;-39
2021/09/08 12:47:13;;;;;;;;;;;23.60;36.60;;;;;;4345628;32;20517;-39
2021/09/08 12:49:40;;;;;;;;;;;23.50;36.80;;;;;;4345094;32;19967;-40
2021/09/08 12:52:11;;;;;;;;;;;23.50;36.90;;;;;;4343760;33;20422;-39
2021/09/08 12:54:38;;;;;;;;;;;23.50;36.90;;;;;;4345540;33;19994;-39
2021/09/08 12:57:05;;;;;;;;;;;23.50;37.00;;;;;;4344637;32;20060;-39
2021/09/08 12:59:33;;;;;;;;;;;23.50;37.00;;;;;;4344774;32;19963;-40
2021/09/08 13:01:59;;;;;;;;;;;23.50;37.00;;;;;;4344879;32;19978;-40
2021/09/08 13:04:25;;;;;;;;;;;23.60;37.00;;;;;;4343640;33;20013;-39
2021/09/08 13:06:51;;;;;;;;;;;23.70;36.90;;;;;;4345194;32;20064;-40
2021/09/08 13:09:18;;;;;;;;;;;23.70;36.70;;;;;;4344997;32;19989;-39
2021/09/08 13:11:44;;;;;;;;;;;23.70;36.60;;;;;;4344799;32;20047;-39
2021/09/08 13:14:10;;;;;;;;;;;23.60;36.50;;;;;;4354085;32;19986;-39
2021/09/08 13:16:37;;;;;;;;;;;23.60;36.30;;;;;;4359638;32;20376;-40
2021/09/08 13:19:04;;;;;;;;;;;23.50;36.40;;;;;;4359585;32;19974;-38
2021/09/08 13:21:31;;;;;;;;;;;23.50;36.20;;;;;;4359434;32;20000;-39
2021/09/08 13:23:58;;;;;;;;;;;23.50;36.20;;;;;;4359378;32;20068;-39
2021/09/08 13:26:24;;;;;;;;;;;23.50;36.30;;;;;;4359304;32;19994;-40
2021/09/08 13:28:50;;;;;;;;;;;23.50;36.10;;;;;;4359259;32;19967;-38
2021/09/08 13:31:16;;;;;;;;;;;23.40;35.80;;;;;;4359801;32;20061;-39
2021/09/08 13:33:43;;;;;;;;;;;23.40;35.60;;;;;;4359188;32;19989;-39
2021/09/08 13:36:09;;;;;;;;;;;23.30;35.80;;;;;;4359113;32;20481;-38
2021/09/08 13:38:35;;;;;;;;;;;23.20;35.60;;;;;;4359426;32;19955;-39
2021/09/08 13:41:02;;;;;;;;;;;23.20;35.70;;;;;;4345494;32;19985;-39
2021/09/08 13:43:29;;;;;;;;;;;23.10;35.90;;;;;;4346722;32;19983;-38
2021/09/08 13:45:55;;;;;;;;;;;23.10;35.90;;;;;;4330593;33;19970;-38
2021/09/08 13:48:21;;;;;;;;;;;23.00;35.80;;;;;;4343935;32;20415;-40
2021/09/08 13:50:48;;;;;;;;;;;23.00;35.80;;;;;;4344440;33;20041;-39
2021/09/08 13:53:14;;;;;;;;;;;23.00;35.90;;;;;;4344017;33;19969;-39
2021/09/08 13:55:40;;;;;;;;;;;22.90;36.00;;;;;;4344317;32;20211;-39
2021/09/08 13:58:07;;;;;;;;;;;23.00;36.10;;;;;;4344070;32;19960;-38
2021/09/08 14:00:34;;;;;;;;;;;23.00;36.30;;;;;;4344235;33;19981;-38
2021/09/08 14:03:01;;;;;;;;;;;23.10;36.30;;;;;;4343967;33;20005;-39
2021/09/08 14:05:27;;;;;;;;;;;23.00;36.20;;;;;;4330063;33;20557;-38
2021/09/08 14:07:53;;;;;;;;;;;23.00;36.20;;;;;;4343660;33;19971;-39
2021/09/08 14:10:20;;;;;;;;;;;23.00;36.30;;;;;;4343596;33;20386;-39
2021/09/08 14:12:46;;;;;;;;;;;23.00;36.40;;;;;;4343926;33;19966;-39
2021/09/08 14:15:12;;;;;;;;;;;23.00;36.30;;;;;;4344211;33;20037;-38
2021/09/08 14:17:40;;;;;;;;;;;23.00;36.40;;;;;;4343951;33;19963;-38